sensor_id;sensor_type;location;lat;lon;timestamp;pressure;altitude;pressure_sealevel;temperature;humidity
28344;BME280;15597;50.914;6.638;2024-02-28T00:00:28;101222.41;;;9.86;55.05
28344;BME280;15597;50.914;6.638;2024-02-28T00:02:53;101219.81;;;9.86;55.00
28344;BME280;15597;50.914;6.638;2024-02-28T00:05:19;101225.06;;;9.83;54.79
28344;BME280;15597;50.914;6.638;2024-02-28T00:07:44;101219.81;;;9.81;55.07
28344;BME280;15597;50.914;6.638;2024-02-28T00:10:11;101225.97;;;9.78;55.21
28344;BME280;15597;50.914;6.638;2024-02-28T00:12:38;101225.97;;;9.78;54.73
28344;BME280;15597;50.914;6.638;2024-02-28T00:15:05;101234.69;;;9.77;54.43
28344;BME280;15597;50.914;6.638;2024-02-28T00:17:31;101232.94;;;9.76;55.19
28344;BME280;15597;50.914;6.638;2024-02-28T00:19:56;101227.72;;;9.75;55.20
28344;BME280;15597;50.914;6.638;2024-02-28T00:22:22;101234.72;;;9.74;54.99
28344;BME280;15597;50.914;6.638;2024-02-28T00:24:47;101237.31;;;9.74;54.56
28344;BME280;15597;50.914;6.638;2024-02-28T00:27:13;101239.06;;;9.74;55.07
28344;BME280;15597;50.914;6.638;2024-02-28T00:29:39;101232.13;;;9.71;54.86
28344;BME280;15597;50.914;6.638;2024-02-28T00:32:04;101225.16;;;9.70;55.21
28344;BME280;15597;50.914;6.638;2024-02-28T00:34:30;101233.03;;;9.67;54.84
28344;BME280;15597;50.914;6.638;2024-02-28T00:36:56;101234.78;;;9.65;55.25
28344;BME280;15597;50.914;6.638;2024-02-28T00:39:21;101236.53;;;9.63;55.02
28344;BME280;15597;50.914;6.638;2024-02-28T00:41:47;101241.75;;;9.63;55.51
28344;BME280;15597;50.914;6.638;2024-02-28T00:44:12;101246.09;;;9.62;54.84
28344;BME280;15597;50.914;6.638;2024-02-28T00:46:39;101239.16;;;9.63;54.91
28344;BME280;15597;50.914;6.638;2024-02-28T00:49:05;101239.16;;;9.61;55.11
28344;BME280;15597;50.914;6.638;2024-02-28T00:51:30;101242.66;;;9.59;55.06
28344;BME280;15597;50.914;6.638;2024-02-28T00:53:56;101241.81;;;9.57;55.20
28344;BME280;15597;50.914;6.638;2024-02-28T00:56:22;101239.19;;;9.57;55.47
28344;BME280;15597;50.914;6.638;2024-02-28T00:58:47;101237.47;;;9.56;55.39
28344;BME280;15597;50.914;6.638;2024-02-28T01:01:13;101233.13;;;9.55;55.07
28344;BME280;15597;50.914;6.638;2024-02-28T01:03:38;101238.34;;;9.55;54.64
28344;BME280;15597;50.914;6.638;2024-02-28T01:06:04;101229.63;;;9.53;54.94
28344;BME280;15597;50.914;6.638;2024-02-28T01:08:30;101223.53;;;9.50;54.81
28344;BME280;15597;50.914;6.638;2024-02-28T01:10:56;101226.16;;;9.47;54.80
28344;BME280;15597;50.914;6.638;2024-02-28T01:13:21;101228.81;;;9.43;54.78
28344;BME280;15597;50.914;6.638;2024-02-28T01:15:48;101224.47;;;9.40;54.90
28344;BME280;15597;50.914;6.638;2024-02-28T01:18:14;101220.13;;;9.39;55.36
28344;BME280;15597;50.914;6.638;2024-02-28T01:20:39;101222.72;;;9.39;55.28
28344;BME280;15597;50.914;6.638;2024-02-28T01:23:05;101221.84;;;9.40;55.15
28344;BME280;15597;50.914;6.638;2024-02-28T01:25:30;101219.25;;;9.40;55.00
28344;BME280;15597;50.914;6.638;2024-02-28T01:27:56;101219.25;;;9.40;55.34
28344;BME280;15597;50.914;6.638;2024-02-28T01:30:25;101221.00;;;9.38;55.43
28344;BME280;15597;50.914;6.638;2024-02-28T01:32:51;101230.59;;;9.36;54.70
28344;BME280;15597;50.914;6.638;2024-02-28T01:35:17;101234.97;;;9.35;55.26
28344;BME280;15597;50.914;6.638;2024-02-28T01:37:42;101231.47;;;9.35;54.85
28344;BME280;15597;50.914;6.638;2024-02-28T01:40:08;101227.13;;;9.34;54.62
28344;BME280;15597;50.914;6.638;2024-02-28T01:42:35;101223.66;;;9.33;55.51
28344;BME280;15597;50.914;6.638;2024-02-28T01:45:01;101230.63;;;9.33;54.99
28344;BME280;15597;50.914;6.638;2024-02-28T01:47:26;101237.59;;;9.32;54.67
28344;BME280;15597;50.914;6.638;2024-02-28T01:49:53;101234.09;;;9.33;54.94
28344;BME280;15597;50.914;6.638;2024-02-28T01:52:20;101229.75;;;9.31;54.75
28344;BME280;15597;50.914;6.638;2024-02-28T01:54:46;101234.97;;;9.31;55.36
28344;BME280;15597;50.914;6.638;2024-02-28T01:57:13;101237.63;;;9.29;54.96
28344;BME280;15597;50.914;6.638;2024-02-28T01:59:39;101235.00;;;9.28;54.76
28344;BME280;15597;50.914;6.638;2024-02-28T02:02:06;101233.25;;;9.27;54.74
28344;BME280;15597;50.914;6.638;2024-02-28T02:04:32;101225.44;;;9.24;55.19
28344;BME280;15597;50.914;6.638;2024-02-28T02:06:57;101227.22;;;9.20;55.05
28344;BME280;15597;50.914;6.638;2024-02-28T02:09:25;101235.03;;;9.18;55.41
28344;BME280;15597;50.914;6.638;2024-02-28T02:11:51;101237.66;;;9.18;55.46
28344;BME280;15597;50.914;6.638;2024-02-28T02:14:16;101235.03;;;9.18;55.07
28344;BME280;15597;50.914;6.638;2024-02-28T02:16:42;101237.69;;;9.17;54.97
28344;BME280;15597;50.914;6.638;2024-02-28T02:19:08;101235.06;;;9.15;54.83
28344;BME280;15597;50.914;6.638;2024-02-28T02:21:41;101222.91;;;9.11;54.96
28344;BME280;15597;50.914;6.638;2024-02-28T02:24:09;101229.00;;;9.10;55.37
28344;BME280;15597;50.914;6.638;2024-02-28T02:26:34;101229.88;;;9.09;54.94
28344;BME280;15597;50.914;6.638;2024-02-28T02:29:00;101226.41;;;9.07;55.39
28344;BME280;15597;50.914;6.638;2024-02-28T02:31:25;101222.06;;;9.08;55.03
28344;BME280;15597;50.914;6.638;2024-02-28T02:33:51;101224.66;;;9.06;55.33
28344;BME280;15597;50.914;6.638;2024-02-28T02:36:17;101222.06;;;9.06;55.33
28344;BME280;15597;50.914;6.638;2024-02-28T02:38:43;101222.94;;;9.06;55.36
28344;BME280;15597;50.914;6.638;2024-02-28T02:41:08;101224.66;;;9.06;54.91
28344;BME280;15597;50.914;6.638;2024-02-28T02:43:34;101229.88;;;9.06;55.32
28344;BME280;15597;50.914;6.638;2024-02-28T02:46:00;101230.75;;;9.05;55.14
28344;BME280;15597;50.914;6.638;2024-02-28T02:48:25;101233.38;;;9.05;55.09
28344;BME280;15597;50.914;6.638;2024-02-28T02:50:51;101245.56;;;9.03;54.83
28344;BME280;15597;50.914;6.638;2024-02-28T02:53:16;101249.06;;;9.02;54.74
28344;BME280;15597;50.914;6.638;2024-02-28T02:55:42;101255.16;;;9.01;54.74
28344;BME280;15597;50.914;6.638;2024-02-28T02:58:07;101252.56;;;8.98;54.88
28344;BME280;15597;50.914;6.638;2024-02-28T03:00:33;101256.91;;;8.94;55.15
28344;BME280;15597;50.914;6.638;2024-02-28T03:02:59;101256.91;;;8.91;55.16
28344;BME280;15597;50.914;6.638;2024-02-28T03:05:24;101252.59;;;8.88;55.16
28344;BME280;15597;50.914;6.638;2024-02-28T03:07:50;101263.91;;;8.86;55.78
28344;BME280;15597;50.914;6.638;2024-02-28T03:10:15;101260.44;;;8.82;55.64
28344;BME280;15597;50.914;6.638;2024-02-28T03:12:41;101259.59;;;8.80;55.31
28344;BME280;15597;50.914;6.638;2024-02-28T03:15:07;101263.06;;;8.77;55.63
28344;BME280;15597;50.914;6.638;2024-02-28T03:17:32;101258.72;;;8.75;55.56
28344;BME280;15597;50.914;6.638;2024-02-28T03:19:58;101270.03;;;8.74;55.81
28344;BME280;15597;50.914;6.638;2024-02-28T03:22:24;101257.00;;;8.71;55.52
28344;BME280;15597;50.914;6.638;2024-02-28T03:24:50;101262.22;;;8.68;55.98
28344;BME280;15597;50.914;6.638;2024-02-28T03:27:16;101256.16;;;8.66;55.97
28344;BME280;15597;50.914;6.638;2024-02-28T03:29:41;101259.63;;;8.65;55.63
28344;BME280;15597;50.914;6.638;2024-02-28T03:32:07;101268.34;;;8.64;55.69
28344;BME280;15597;50.914;6.638;2024-02-28T03:34:33;101261.38;;;8.62;56.06
28344;BME280;15597;50.914;6.638;2024-02-28T03:36:59;101266.59;;;8.66;56.22
28344;BME280;15597;50.914;6.638;2024-02-28T03:39:24;101271.81;;;8.66;56.08
28344;BME280;15597;50.914;6.638;2024-02-28T03:41:50;101271.78;;;8.67;56.32
28344;BME280;15597;50.914;6.638;2024-02-28T03:44:15;101277.00;;;8.69;55.91
28344;BME280;15597;50.914;6.638;2024-02-28T03:46:41;101272.66;;;8.69;56.30
28344;BME280;15597;50.914;6.638;2024-02-28T03:49:06;101277.00;;;8.69;56.03
28344;BME280;15597;50.914;6.638;2024-02-28T03:51:32;101270.06;;;8.68;55.62
28344;BME280;15597;50.914;6.638;2024-02-28T03:53:58;101270.06;;;8.68;55.98
28344;BME280;15597;50.914;6.638;2024-02-28T03:56:26;101271.78;;;8.69;55.79
28344;BME280;15597;50.914;6.638;2024-02-28T03:58:53;101277.00;;;8.69;55.83
28344;BME280;15597;50.914;6.638;2024-02-28T04:01:18;101282.22;;;8.69;56.04
28344;BME280;15597;50.914;6.638;2024-02-28T04:03:44;101278.75;;;8.70;56.13
28344;BME280;15597;50.914;6.638;2024-02-28T04:06:10;101279.59;;;8.70;56.04
28344;BME280;15597;50.914;6.638;2024-02-28T04:08:36;101287.44;;;8.72;55.98
28344;BME280;15597;50.914;6.638;2024-02-28T04:11:02;101297.84;;;8.73;56.25
28344;BME280;15597;50.914;6.638;2024-02-28T04:13:27;101297.88;;;8.75;55.81
28344;BME280;15597;50.914;6.638;2024-02-28T04:15:53;101304.81;;;8.76;55.87
28344;BME280;15597;50.914;6.638;2024-02-28T04:18:18;101291.78;;;8.76;55.59
28344;BME280;15597;50.914;6.638;2024-02-28T04:20:44;101290.91;;;8.77;56.23
28344;BME280;15597;50.914;6.638;2024-02-28T04:23:10;101298.72;;;8.79;55.96
28344;BME280;15597;50.914;6.638;2024-02-28T04:25:35;101302.19;;;8.81;56.15
28344;BME280;15597;50.914;6.638;2024-02-28T04:28:02;101306.56;;;8.80;56.00
28344;BME280;15597;50.914;6.638;2024-02-28T04:30:28;101300.47;;;8.78;56.13
28344;BME280;15597;50.914;6.638;2024-02-28T04:32:54;101304.81;;;8.76;55.84
28344;BME280;15597;50.914;6.638;2024-02-28T04:35:19;101301.34;;;8.77;56.23
28344;BME280;15597;50.914;6.638;2024-02-28T04:37:48;101298.72;;;8.75;56.21
28344;BME280;15597;50.914;6.638;2024-02-28T04:40:13;101312.66;;;8.76;55.96
28344;BME280;15597;50.914;6.638;2024-02-28T04:42:39;101309.19;;;8.74;56.24
28344;BME280;15597;50.914;6.638;2024-02-28T04:45:05;101309.19;;;8.74;56.00
28344;BME280;15597;50.914;6.638;2024-02-28T04:47:31;101315.28;;;8.73;56.10
28344;BME280;15597;50.914;6.638;2024-02-28T04:49:57;101321.34;;;8.73;56.20
28344;BME280;15597;50.914;6.638;2024-02-28T04:52:23;101326.56;;;8.73;56.17
28344;BME280;15597;50.914;6.638;2024-02-28T04:54:51;101330.06;;;8.74;56.00
28344;BME280;15597;50.914;6.638;2024-02-28T04:57:16;101329.19;;;8.75;56.22
28344;BME280;15597;50.914;6.638;2024-02-28T04:59:43;101332.66;;;8.77;56.23
28344;BME280;15597;50.914;6.638;2024-02-28T05:02:09;101340.47;;;8.79;56.08
28344;BME280;15597;50.914;6.638;2024-02-28T05:04:35;101341.34;;;8.79;56.43
28344;BME280;15597;50.914;6.638;2024-02-28T05:07:00;101343.09;;;8.80;55.84
28344;BME280;15597;50.914;6.638;2024-02-28T05:09:26;101337.88;;;8.80;55.83
28344;BME280;15597;50.914;6.638;2024-02-28T05:11:52;101339.59;;;8.81;55.73
28344;BME280;15597;50.914;6.638;2024-02-28T05:14:17;101337.84;;;8.79;56.50
28344;BME280;15597;50.914;6.638;2024-02-28T05:16:43;101340.47;;;8.79;56.47
28344;BME280;15597;50.914;6.638;2024-02-28T05:19:08;101335.25;;;8.79;56.36
28344;BME280;15597;50.914;6.638;2024-02-28T05:21:41;101344.84;;;8.78;56.48
28344;BME280;15597;50.914;6.638;2024-02-28T05:24:08;101340.47;;;8.79;56.42
28344;BME280;15597;50.914;6.638;2024-02-28T05:26:37;101336.13;;;8.79;56.51
28344;BME280;15597;50.914;6.638;2024-02-28T05:29:04;101337.88;;;8.77;55.94
28344;BME280;15597;50.914;6.638;2024-02-28T05:31:30;101350.06;;;8.78;56.12
28344;BME280;15597;50.914;6.638;2024-02-28T05:34:00;101343.97;;;8.76;55.94
28344;BME280;15597;50.914;6.638;2024-02-28T05:36:28;101346.59;;;8.73;56.32
28344;BME280;15597;50.914;6.638;2024-02-28T05:38:55;101347.44;;;8.72;56.30
28344;BME280;15597;50.914;6.638;2024-02-28T05:41:22;101341.34;;;8.71;56.36
28344;BME280;15597;50.914;6.638;2024-02-28T05:43:48;101341.38;;;8.70;56.45
28344;BME280;15597;50.914;6.638;2024-02-28T05:46:14;101346.59;;;8.70;56.42
28344;BME280;15597;50.914;6.638;2024-02-28T05:48:41;101348.31;;;8.68;56.08
28344;BME280;15597;50.914;6.638;2024-02-28T05:51:07;101356.13;;;8.66;56.36
28344;BME280;15597;50.914;6.638;2024-02-28T05:53:32;101360.50;;;8.62;56.39
28344;BME280;15597;50.914;6.638;2024-02-28T05:56:10;101360.53;;;8.56;56.74
28344;BME280;15597;50.914;6.638;2024-02-28T05:58:46;101360.53;;;8.50;57.09
28344;BME280;15597;50.914;6.638;2024-02-28T06:01:15;101362.25;;;8.51;57.07
28344;BME280;15597;50.914;6.638;2024-02-28T06:03:40;101368.34;;;8.52;56.98
28344;BME280;15597;50.914;6.638;2024-02-28T06:06:06;101375.31;;;8.54;56.75
28344;BME280;15597;50.914;6.638;2024-02-28T06:08:33;101386.59;;;8.56;57.02
28344;BME280;15597;50.914;6.638;2024-02-28T06:10:59;101395.31;;;8.55;57.09
28344;BME280;15597;50.914;6.638;2024-02-28T06:13:24;101387.47;;;8.58;56.85
28344;BME280;15597;50.914;6.638;2024-02-28T06:15:50;101391.81;;;8.59;56.59
28344;BME280;15597;50.914;6.638;2024-02-28T06:18:16;101384.88;;;8.58;56.57
28344;BME280;15597;50.914;6.638;2024-02-28T06:20:41;101383.13;;;8.57;57.06
28344;BME280;15597;50.914;6.638;2024-02-28T06:23:07;101392.69;;;8.57;56.92
28344;BME280;15597;50.914;6.638;2024-02-28T06:25:32;101384.88;;;8.55;57.00
28344;BME280;15597;50.914;6.638;2024-02-28T06:27:59;101395.31;;;8.58;57.09
28344;BME280;15597;50.914;6.638;2024-02-28T06:30:26;101393.56;;;8.57;56.95
28344;BME280;15597;50.914;6.638;2024-02-28T06:32:51;101397.03;;;8.59;56.83
28344;BME280;15597;50.914;6.638;2024-02-28T06:35:17;101403.13;;;8.61;56.79
28344;BME280;15597;50.914;6.638;2024-02-28T06:37:43;101398.75;;;8.62;56.88
28344;BME280;15597;50.914;6.638;2024-02-28T06:40:15;101405.72;;;8.65;57.10
28344;BME280;15597;50.914;6.638;2024-02-28T06:42:41;101412.66;;;8.67;56.53
28344;BME280;15597;50.914;6.638;2024-02-28T06:45:07;101404.84;;;8.69;56.62
28344;BME280;15597;50.914;6.638;2024-02-28T06:47:34;101406.59;;;8.70;56.90
28344;BME280;15597;50.914;6.638;2024-02-28T06:50:02;101407.47;;;8.72;56.50
28344;BME280;15597;50.914;6.638;2024-02-28T06:52:28;101419.63;;;8.73;56.55
28344;BME280;15597;50.914;6.638;2024-02-28T06:54:54;101419.63;;;8.71;56.77
28344;BME280;15597;50.914;6.638;2024-02-28T06:57:20;101415.28;;;8.69;56.48
28344;BME280;15597;50.914;6.638;2024-02-28T06:59:45;101423.13;;;8.69;56.71
28344;BME280;15597;50.914;6.638;2024-02-28T07:02:11;101424.88;;;8.67;56.70
28344;BME280;15597;50.914;6.638;2024-02-28T07:04:38;101425.72;;;8.67;56.85
28344;BME280;15597;50.914;6.638;2024-02-28T07:07:04;101419.63;;;8.68;56.81
28344;BME280;15597;50.914;6.638;2024-02-28T07:09:31;101426.59;;;8.72;56.97
28344;BME280;15597;50.914;6.638;2024-02-28T07:11:58;101417.91;;;8.75;56.33
28344;BME280;15597;50.914;6.638;2024-02-28T07:14:24;101424.84;;;8.76;56.37
28344;BME280;15597;50.914;6.638;2024-02-28T07:16:49;101441.38;;;8.80;56.53
28344;BME280;15597;50.914;6.638;2024-02-28T07:19:17;101431.81;;;8.80;56.56
28344;BME280;15597;50.914;6.638;2024-02-28T07:21:43;101429.22;;;8.80;56.78
28344;BME280;15597;50.914;6.638;2024-02-28T07:24:09;101433.56;;;8.81;56.90
28344;BME280;15597;50.914;6.638;2024-02-28T07:26:35;101439.63;;;8.82;56.57
28344;BME280;15597;50.914;6.638;2024-02-28T07:29:01;101442.25;;;8.83;56.70
28344;BME280;15597;50.914;6.638;2024-02-28T07:31:27;101438.78;;;8.84;56.37
28344;BME280;15597;50.914;6.638;2024-02-28T07:33:53;101444.00;;;8.84;56.87
28344;BME280;15597;50.914;6.638;2024-02-28T07:36:19;101441.38;;;8.84;56.95
28344;BME280;15597;50.914;6.638;2024-02-28T07:38:45;101442.25;;;8.83;56.95
28344;BME280;15597;50.914;6.638;2024-02-28T07:41:11;101442.25;;;8.80;57.05
28344;BME280;15597;50.914;6.638;2024-02-28T07:43:37;101447.47;;;8.80;57.07
28344;BME280;15597;50.914;6.638;2024-02-28T07:46:10;101442.25;;;8.80;57.10
28344;BME280;15597;50.914;6.638;2024-02-28T07:48:39;101438.78;;;8.78;57.23
28344;BME280;15597;50.914;6.638;2024-02-28T07:51:05;101447.47;;;8.74;57.00
28344;BME280;15597;50.914;6.638;2024-02-28T07:53:31;101438.75;;;8.73;57.24
28344;BME280;15597;50.914;6.638;2024-02-28T07:55:56;101447.47;;;8.74;57.82
28344;BME280;15597;50.914;6.638;2024-02-28T07:58:22;101445.72;;;8.76;57.40
28344;BME280;15597;50.914;6.638;2024-02-28T08:00:48;101447.47;;;8.80;57.30
28344;BME280;15597;50.914;6.638;2024-02-28T08:03:13;101445.72;;;8.82;56.89
28344;BME280;15597;50.914;6.638;2024-02-28T08:05:39;101455.28;;;8.86;56.76
28344;BME280;15597;50.914;6.638;2024-02-28T08:08:05;101457.91;;;8.89;57.17
28344;BME280;15597;50.914;6.638;2024-02-28T08:10:31;101449.22;;;8.90;56.82
28344;BME280;15597;50.914;6.638;2024-02-28T08:12:57;101460.50;;;8.94;56.91
28344;BME280;15597;50.914;6.638;2024-02-28T08:15:23;101464.84;;;8.97;56.67
28344;BME280;15597;50.914;6.638;2024-02-28T08:17:48;101471.81;;;9.01;57.00
28344;BME280;15597;50.914;6.638;2024-02-28T08:20:14;101467.47;;;9.03;57.00
28344;BME280;15597;50.914;6.638;2024-02-28T08:22:40;101465.75;;;9.03;56.58
28344;BME280;15597;50.914;6.638;2024-02-28T08:25:06;101479.66;;;9.02;57.09
28344;BME280;15597;50.914;6.638;2024-02-28T08:27:32;101478.78;;;9.03;56.73
28344;BME280;15597;50.914;6.638;2024-02-28T08:30:00;101475.28;;;9.03;56.78
28344;BME280;15597;50.914;6.638;2024-02-28T08:32:25;101471.81;;;9.04;56.40
28344;BME280;15597;50.914;6.638;2024-02-28T08:34:51;101470.09;;;9.01;56.82
28344;BME280;15597;50.914;6.638;2024-02-28T08:37:19;101474.44;;;9.01;56.61
28344;BME280;15597;50.914;6.638;2024-02-28T08:39:45;101476.16;;;8.97;56.61
28344;BME280;15597;50.914;6.638;2024-02-28T08:42:11;101482.25;;;8.98;57.29
28344;BME280;15597;50.914;6.638;2024-02-28T08:44:37;101481.38;;;8.97;57.11
28344;BME280;15597;50.914;6.638;2024-02-28T08:47:03;101480.53;;;8.97;56.97
28344;BME280;15597;50.914;6.638;2024-02-28T08:49:29;101481.41;;;8.96;56.63
28344;BME280;15597;50.914;6.638;2024-02-28T08:51:56;101474.44;;;8.95;57.18
28344;BME280;15597;50.914;6.638;2024-02-28T08:54:22;101480.53;;;8.94;57.28
28344;BME280;15597;50.914;6.638;2024-02-28T08:56:48;101483.13;;;8.94;57.26
28344;BME280;15597;50.914;6.638;2024-02-28T08:59:14;101491.81;;;8.94;57.16
28344;BME280;15597;50.914;6.638;2024-02-28T09:01:39;101490.06;;;8.96;57.29
28344;BME280;15597;50.914;6.638;2024-02-28T09:04:07;101491.81;;;8.97;56.91
28344;BME280;15597;50.914;6.638;2024-02-28T09:06:32;101490.97;;;8.97;57.48
28344;BME280;15597;50.914;6.638;2024-02-28T09:08:58;101490.09;;;9.01;57.00
28344;BME280;15597;50.914;6.638;2024-02-28T09:11:23;101499.66;;;9.05;57.06
28344;BME280;15597;50.914;6.638;2024-02-28T09:13:50;101497.03;;;9.08;57.33
28344;BME280;15597;50.914;6.638;2024-02-28T09:16:16;101497.03;;;9.11;57.22
28344;BME280;15597;50.914;6.638;2024-02-28T09:18:42;101497.06;;;9.13;57.34
28344;BME280;15597;50.914;6.638;2024-02-28T09:21:08;101489.22;;;9.14;57.42
28344;BME280;15597;50.914;6.638;2024-02-28T09:23:34;101499.66;;;9.17;57.20
28344;BME280;15597;50.914;6.638;2024-02-28T09:26:04;101502.28;;;9.19;57.05
28344;BME280;15597;50.914;6.638;2024-02-28T09:28:29;101494.41;;;9.20;56.94
28344;BME280;15597;50.914;6.638;2024-02-28T09:30:55;101490.94;;;9.21;57.09
28344;BME280;15597;50.914;6.638;2024-02-28T09:33:21;101490.94;;;9.25;57.30
28344;BME280;15597;50.914;6.638;2024-02-28T09:35:46;101490.94;;;9.26;57.46
28344;BME280;15597;50.914;6.638;2024-02-28T09:38:12;101510.97;;;9.27;57.17
28344;BME280;15597;50.914;6.638;2024-02-28T09:40:38;101505.72;;;9.29;57.12
28344;BME280;15597;50.914;6.638;2024-02-28T09:43:04;101504.84;;;9.30;57.61
28344;BME280;15597;50.914;6.638;2024-02-28T09:45:30;101506.59;;;9.32;57.34
28344;BME280;15597;50.914;6.638;2024-02-28T09:47:58;101508.31;;;9.35;57.21
28344;BME280;15597;50.914;6.638;2024-02-28T09:50:25;101508.31;;;9.35;57.44
28344;BME280;15597;50.914;6.638;2024-02-28T09:52:51;101499.63;;;9.36;57.48
28344;BME280;15597;50.914;6.638;2024-02-28T09:55:16;101486.56;;;9.41;57.05
28344;BME280;15597;50.914;6.638;2024-02-28T09:57:42;101485.69;;;9.40;57.42
28344;BME280;15597;50.914;6.638;2024-02-28T10:00:09;101486.56;;;9.39;57.28
28344;BME280;15597;50.914;6.638;2024-02-28T10:02:37;101483.06;;;9.40;57.19
28344;BME280;15597;50.914;6.638;2024-02-28T10:05:03;101476.97;;;9.41;57.41
28344;BME280;15597;50.914;6.638;2024-02-28T10:07:30;101480.44;;;9.43;57.56
28344;BME280;15597;50.914;6.638;2024-02-28T10:09:56;101466.50;;;9.44;57.21
28344;BME280;15597;50.914;6.638;2024-02-28T10:12:22;101466.50;;;9.47;57.44
28344;BME280;15597;50.914;6.638;2024-02-28T10:14:51;101476.09;;;9.50;57.90
28344;BME280;15597;50.914;6.638;2024-02-28T10:17:17;101471.72;;;9.54;57.11
28344;BME280;15597;50.914;6.638;2024-02-28T10:19:42;101475.19;;;9.53;57.39
28344;BME280;15597;50.914;6.638;2024-02-28T10:22:08;101474.34;;;9.55;57.11
28344;BME280;15597;50.914;6.638;2024-02-28T10:24:34;101462.13;;;9.57;57.81
28344;BME280;15597;50.914;6.638;2024-02-28T10:27:01;101471.72;;;9.60;57.99
28344;BME280;15597;50.914;6.638;2024-02-28T10:29:26;101473.44;;;9.64;57.58
28344;BME280;15597;50.914;6.638;2024-02-28T10:31:58;101470.84;;;9.64;57.92
28344;BME280;15597;50.914;6.638;2024-02-28T10:34:25;101460.34;;;9.69;56.97
28344;BME280;15597;50.914;6.638;2024-02-28T10:36:51;101462.97;;;9.70;57.04
28344;BME280;15597;50.914;6.638;2024-02-28T10:39:17;101466.44;;;9.75;57.71
28344;BME280;15597;50.914;6.638;2024-02-28T10:41:44;101473.38;;;9.79;57.66
28344;BME280;15597;50.914;6.638;2024-02-28T10:44:12;101476.88;;;9.82;57.64
28344;BME280;15597;50.914;6.638;2024-02-28T10:46:38;101471.63;;;9.85;57.38
28344;BME280;15597;50.914;6.638;2024-02-28T10:49:05;101471.59;;;9.88;57.82
28344;BME280;15597;50.914;6.638;2024-02-28T10:51:34;101476.81;;;9.92;57.86
28344;BME280;15597;50.914;6.638;2024-02-28T10:54:09;101478.53;;;9.95;57.78
28344;BME280;15597;50.914;6.638;2024-02-28T10:56:41;101479.38;;;9.99;57.27
28344;BME280;15597;50.914;6.638;2024-02-28T10:59:08;101485.47;;;10.02;57.26
28344;BME280;15597;50.914;6.638;2024-02-28T11:01:35;101487.22;;;10.06;57.36
28344;BME280;15597;50.914;6.638;2024-02-28T11:04:02;101485.44;;;10.13;57.39
28344;BME280;15597;50.914;6.638;2024-02-28T11:06:28;101496.75;;;10.17;57.37
28344;BME280;15597;50.914;6.638;2024-02-28T11:08:54;101490.63;;;10.21;57.28
28344;BME280;15597;50.914;6.638;2024-02-28T11:11:22;101488.84;;;10.26;57.38
28344;BME280;15597;50.914;6.638;2024-02-28T11:13:55;101485.34;;;10.32;56.74
28344;BME280;15597;50.914;6.638;2024-02-28T11:16:31;101481.84;;;10.31;56.97
28344;BME280;15597;50.914;6.638;2024-02-28T11:18:57;101484.44;;;10.36;57.28
28344;BME280;15597;50.914;6.638;2024-02-28T11:21:25;101480.91;;;10.38;57.21
28344;BME280;15597;50.914;6.638;2024-02-28T11:23:51;101480.94;;;10.43;57.30
28344;BME280;15597;50.914;6.638;2024-02-28T11:26:17;101467.81;;;10.48;57.02
28344;BME280;15597;50.914;6.638;2024-02-28T11:28:43;101473.91;;;10.51;57.02
28344;BME280;15597;50.914;6.638;2024-02-28T11:31:09;101469.47;;;10.58;56.91
28344;BME280;15597;50.914;6.638;2024-02-28T11:33:38;101462.50;;;10.60;57.37
28344;BME280;15597;50.914;6.638;2024-02-28T11:36:05;101460.69;;;10.67;56.96
28344;BME280;15597;50.914;6.638;2024-02-28T11:38:31;101458.94;;;10.71;56.90
28344;BME280;15597;50.914;6.638;2024-02-28T11:40:57;101448.44;;;10.74;57.28
28344;BME280;15597;50.914;6.638;2024-02-28T11:43:23;101443.19;;;10.77;56.86
28344;BME280;15597;50.914;6.638;2024-02-28T11:45:49;101443.13;;;10.83;56.88
28344;BME280;15597;50.914;6.638;2024-02-28T11:48:15;101444.84;;;10.87;56.90
28344;BME280;15597;50.914;6.638;2024-02-28T11:50:41;101434.31;;;10.89;56.43
28344;BME280;15597;50.914;6.638;2024-02-28T11:53:07;101441.28;;;10.93;56.47
28344;BME280;15597;50.914;6.638;2024-02-28T11:55:33;101438.63;;;10.96;56.46
28344;BME280;15597;50.914;6.638;2024-02-28T11:57:58;101424.63;;;11.02;56.92
28344;BME280;15597;50.914;6.638;2024-02-28T12:00:24;101422.81;;;11.05;56.74
28344;BME280;15597;50.914;6.638;2024-02-28T12:02:49;101417.53;;;11.13;56.52
28344;BME280;15597;50.914;6.638;2024-02-28T12:05:15;101416.63;;;11.14;56.50
28344;BME280;15597;50.914;6.638;2024-02-28T12:07:41;101413.09;;;11.18;56.30
28344;BME280;15597;50.914;6.638;2024-02-28T12:10:09;101408.69;;;11.23;56.36
28344;BME280;15597;50.914;6.638;2024-02-28T12:12:34;101408.63;;;11.28;56.25
28344;BME280;15597;50.914;6.638;2024-02-28T12:15:01;101405.94;;;11.33;56.25
28344;BME280;15597;50.914;6.638;2024-02-28T12:17:30;101398.91;;;11.38;56.10
28344;BME280;15597;50.914;6.638;2024-02-28T12:19:59;101398.06;;;11.37;56.04
28344;BME280;15597;50.914;6.638;2024-02-28T12:22:24;101405.94;;;11.33;56.46
28344;BME280;15597;50.914;6.638;2024-02-28T12:24:50;101391.06;;;11.35;56.07
28344;BME280;15597;50.914;6.638;2024-02-28T12:27:15;101391.03;;;11.39;56.38
28344;BME280;15597;50.914;6.638;2024-02-28T12:29:41;101390.06;;;11.45;56.55
28344;BME280;15597;50.914;6.638;2024-02-28T12:32:07;101384.72;;;11.54;56.30
28344;BME280;15597;50.914;6.638;2024-02-28T12:34:34;101382.91;;;11.60;56.09
28344;BME280;15597;50.914;6.638;2024-02-28T12:36:59;101371.47;;;11.65;56.24
28344;BME280;15597;50.914;6.638;2024-02-28T12:39:25;101373.19;;;11.71;55.84
28344;BME280;15597;50.914;6.638;2024-02-28T12:41:51;101367.00;;;11.75;55.66
28344;BME280;15597;50.914;6.638;2024-02-28T12:44:16;101367.81;;;11.79;55.39
28344;BME280;15597;50.914;6.638;2024-02-28T12:46:42;101357.25;;;11.83;55.91
28344;BME280;15597;50.914;6.638;2024-02-28T12:49:08;101361.53;;;11.91;55.68
28344;BME280;15597;50.914;6.638;2024-02-28T12:51:43;101347.47;;;11.95;55.76